createdAt,value
2019-05-03T00:01:15.866Z,10.50
2019-05-03T00:03:46.484Z,10.50
2019-05-03T00:06:17.145Z,10.50
2019-05-03T00:08:47.778Z,10.60
2019-05-03T00:13:48.350Z,10.50
2019-05-03T00:16:24.605Z,10.60
2019-05-03T00:23:55.161Z,10.40
2019-05-03T00:28:55.758Z,10.50
2019-05-03T00:31:26.501Z,10.50
2019-05-03T00:34:02.258Z,10.50
2019-05-03T00:39:24.095Z,10.50
2019-05-03T00:41:54.841Z,10.50
2019-05-03T00:44:25.490Z,10.60
2019-05-03T00:46:56.233Z,10.60
2019-05-03T00:49:26.874Z,10.60
2019-05-03T00:54:27.577Z,10.60
2019-05-03T00:56:58.317Z,10.50
2019-05-03T00:59:28.953Z,10.50
2019-05-03T01:01:59.673Z,10.50
2019-05-03T01:07:02.338Z,10.50
2019-05-03T01:09:33.953Z,10.60
2019-05-03T01:12:04.918Z,10.50
2019-05-03T01:14:37.155Z,10.50
2019-05-03T01:17:07.888Z,10.50
2019-05-03T01:19:38.598Z,10.50
2019-05-03T01:22:09.333Z,10.40
2019-05-03T01:24:39.969Z,10.50
2019-05-03T01:27:12.350Z,10.60
2019-05-03T01:29:43.093Z,10.50
2019-05-03T01:32:13.823Z,10.50
2019-05-03T01:34:44.525Z,10.50
2019-05-03T01:37:15.193Z,10.50
2019-05-03T01:39:46.792Z,10.50
2019-05-03T01:42:17.522Z,10.50
2019-05-03T01:44:48.151Z,10.50
2019-05-03T01:47:25.412Z,10.50
2019-05-03T01:50:09.511Z,10.50
2019-05-03T01:52:41.975Z,10.50
2019-05-03T01:55:15.833Z,10.50
2019-05-03T01:57:45.999Z,10.50
2019-05-03T02:03:07.681Z,10.50
2019-05-03T02:05:47.099Z,10.50
2019-05-03T02:08:17.833Z,10.60
2019-05-03T02:10:48.538Z,10.60
2019-05-03T02:13:19.196Z,10.50
2019-05-03T02:15:49.906Z,10.50
2019-05-03T02:18:22.358Z,10.50
2019-05-03T02:20:53.230Z,10.50
2019-05-03T02:25:56.795Z,10.50
2019-05-03T02:30:56.214Z,10.50
2019-05-03T02:33:26.877Z,10.50
2019-05-03T02:35:57.602Z,10.50
2019-05-03T02:38:28.864Z,10.50
2019-05-03T02:41:02.685Z,10.50
2019-05-03T02:43:36.588Z,10.50
2019-05-03T02:46:28.741Z,10.50
2019-05-03T02:49:15.406Z,10.50
2019-05-03T02:51:46.267Z,10.40
2019-05-03T02:54:17.134Z,10.50
2019-05-03T02:56:47.886Z,10.50
2019-05-03T02:59:18.591Z,10.40
2019-05-03T03:01:49.875Z,10.40
2019-05-03T03:04:20.944Z,10.40
2019-05-03T03:06:55.659Z,10.40
2019-05-03T03:09:27.864Z,10.40
2019-05-03T03:12:02.191Z,10.40
2019-05-03T03:14:36.265Z,10.40
2019-05-03T03:17:10.755Z,10.40
2019-05-03T03:19:46.165Z,10.30
2019-05-03T03:22:20.809Z,10.30
2019-05-03T03:24:55.898Z,10.30
2019-05-03T03:27:31.937Z,10.40
2019-05-03T03:30:29.050Z,10.30
2019-05-03T03:33:01.843Z,10.30
2019-05-03T03:35:38.064Z,10.30
2019-05-03T03:38:07.259Z,10.30
2019-05-03T03:40:39.849Z,10.30
2019-05-03T03:43:15.753Z,10.30
2019-05-03T03:45:47.686Z,10.30
2019-05-03T03:48:20.740Z,10.30
2019-05-03T03:50:56.091Z,10.30
2019-05-03T03:53:29.064Z,10.20
2019-05-03T03:56:05.574Z,10.30
2019-05-03T03:58:46.459Z,10.20
2019-05-03T04:01:21.136Z,10.20
2019-05-03T04:03:56.129Z,10.10
2019-05-03T04:06:46.380Z,10.20
2019-05-03T04:09:18.389Z,10.10
2019-05-03T04:11:49.422Z,10.20
2019-05-03T04:14:25.597Z,10.10
2019-05-03T04:17:18.727Z,10.20
2019-05-03T04:19:51.770Z,10.20
2019-05-03T04:22:25.300Z,10.20
2019-05-03T04:24:55.471Z,10.20
2019-05-03T04:27:27.588Z,10.20
2019-05-03T04:29:58.650Z,10.20
2019-05-03T04:32:29.467Z,10.30
2019-05-03T04:40:00.445Z,10.30
2019-05-03T04:42:31.514Z,10.40
2019-05-03T04:45:02.287Z,10.40
2019-05-03T04:47:37.407Z,10.50
2019-05-03T04:50:08.657Z,10.50
2019-05-03T04:52:39.345Z,10.70
2019-05-03T04:55:10.159Z,10.60
2019-05-03T04:57:45.751Z,10.70
2019-05-03T05:00:15.811Z,10.80
2019-05-03T05:02:46.052Z,10.70
2019-05-03T05:05:17.465Z,10.70
2019-05-03T05:07:48.229Z,10.70
2019-05-03T05:10:18.961Z,10.80
2019-05-03T05:12:49.718Z,10.80
2019-05-03T05:18:10.231Z,10.70
2019-05-03T05:20:45.543Z,10.70
2019-05-03T05:23:16.216Z,10.70
2019-05-03T05:26:01.218Z,10.80
2019-05-03T05:28:44.783Z,10.70
2019-05-03T05:31:15.693Z,10.70
2019-05-03T05:33:46.524Z,10.70
2019-05-03T05:36:17.265Z,10.70
2019-05-03T05:41:18.138Z,10.60
2019-05-03T05:43:48.894Z,10.50
2019-05-03T05:46:21.785Z,10.50
2019-05-03T05:48:52.870Z,10.50
2019-05-03T05:51:41.322Z,10.40
2019-05-03T05:56:54.837Z,10.40
2019-05-03T06:02:36.808Z,10.30
2019-05-03T06:33:46.601Z,9.50
2019-05-03T06:36:18.201Z,9.40
2019-05-03T06:38:48.868Z,9.40
2019-05-03T06:41:19.557Z,9.30
2019-05-03T06:43:50.217Z,9.40
2019-05-03T06:46:23.489Z,9.50
2019-05-03T06:48:54.908Z,9.50
2019-05-03T06:51:25.525Z,9.50
2019-05-03T06:56:29.075Z,9.60
2019-05-03T07:04:10.052Z,9.80
2019-05-03T07:09:41.450Z,10.00
2019-05-03T07:12:12.104Z,10.10
2019-05-03T07:14:44.876Z,10.30
2019-05-03T07:19:45.925Z,10.10
2019-05-03T07:22:16.733Z,10.10
2019-05-03T07:24:47.429Z,10.10
2019-05-03T07:27:18.064Z,9.90
2019-05-03T07:29:48.762Z,9.90
2019-05-03T07:32:19.445Z,9.90
2019-05-03T07:34:50.091Z,9.90
2019-05-03T07:37:20.794Z,9.90
2019-05-03T07:42:21.427Z,9.70
2019-05-03T07:44:52.132Z,9.70
2019-05-03T07:47:24.416Z,9.80
2019-05-03T07:49:55.108Z,9.80
2019-05-03T07:52:25.934Z,9.80
2019-05-03T07:54:56.690Z,9.80
2019-05-03T07:57:32.392Z,9.80
2019-05-03T08:00:04.961Z,9.80
2019-05-03T08:02:36.068Z,9.90
2019-05-03T08:05:07.008Z,9.90
2019-05-03T08:07:37.545Z,9.80
2019-05-03T08:10:08.991Z,10.00
2019-05-03T08:12:39.685Z,10.20
2019-05-03T08:15:10.438Z,10.40
2019-05-03T08:17:42.226Z,10.60
2019-05-03T08:20:14.383Z,10.90
2019-05-03T08:22:45.125Z,11.20
2019-05-03T08:27:45.673Z,11.50
2019-05-03T08:30:22.460Z,11.50
2019-05-03T08:33:01.094Z,11.70
2019-05-03T08:35:37.204Z,11.60
2019-05-03T08:38:07.833Z,11.70
2019-05-03T08:40:48.510Z,12.10
2019-05-03T08:43:19.205Z,12.10
2019-05-03T08:48:19.838Z,11.80
2019-05-03T08:50:50.581Z,11.80
2019-05-03T08:53:21.227Z,12.30
2019-05-03T08:55:55.229Z,12.30
2019-05-03T08:58:25.795Z,12.40
2019-05-03T09:00:56.548Z,12.50
2019-05-03T09:03:27.249Z,12.70
2019-05-03T09:05:57.971Z,12.70
2019-05-03T09:08:28.674Z,12.60
2019-05-03T09:11:09.335Z,12.90
2019-05-03T09:16:35.549Z,13.50
2019-05-03T09:19:06.314Z,13.10
2019-05-03T09:21:37.024Z,13.60
2019-05-03T09:24:08.123Z,13.90
2019-05-03T09:26:39.032Z,14.10
2019-05-03T09:29:09.739Z,14.50
2019-05-03T09:34:10.281Z,14.30
2019-05-03T09:36:40.989Z,14.40
2019-05-03T09:39:11.622Z,15.20
2019-05-03T09:41:42.376Z,15.20
2019-05-03T09:44:14.980Z,14.00
2019-05-03T09:46:45.417Z,13.80
2019-05-03T09:49:16.658Z,13.80
2019-05-03T09:51:47.334Z,13.60
2019-05-03T09:54:26.305Z,13.50
2019-05-03T09:56:58.605Z,13.30
2019-05-03T09:59:29.941Z,13.10
2019-05-03T10:02:01.915Z,13.10
2019-05-03T10:04:33.573Z,13.10
2019-05-03T10:07:04.281Z,13.40
2019-05-03T10:09:35.451Z,13.50
2019-05-03T10:12:09.584Z,13.50
2019-05-03T10:14:40.211Z,12.90
2019-05-03T10:17:25.059Z,13.00
2019-05-03T10:19:55.072Z,12.80
2019-05-03T10:22:28.309Z,12.50
2019-05-03T10:24:59.058Z,12.70
2019-05-03T10:27:32.345Z,12.90
2019-05-03T10:30:10.470Z,13.50
2019-05-03T10:32:41.303Z,13.10
2019-05-03T10:35:14.993Z,13.60
2019-05-03T10:37:45.409Z,13.90
2019-05-03T10:40:19.769Z,15.70
2019-05-03T10:42:50.494Z,15.80
2019-05-03T10:45:21.191Z,14.50
2019-05-03T10:47:51.929Z,15.10
2019-05-03T10:50:22.609Z,15.00
2019-05-03T10:53:01.967Z,14.70
2019-05-03T10:55:32.590Z,14.50
2019-05-03T11:00:52.985Z,14.20
2019-05-03T11:03:20.346Z,15.40
2019-05-03T11:08:20.904Z,17.90
2019-05-03T11:18:21.326Z,15.20
2019-05-03T11:20:52.026Z,14.60
2019-05-03T11:23:22.738Z,14.40
2019-05-03T11:25:55.388Z,14.60
2019-05-03T11:31:02.251Z,17.30
2019-05-03T11:33:36.917Z,18.10
2019-05-03T11:41:29.374Z,18.80
2019-05-03T11:43:49.216Z,19.20
2019-05-03T11:46:19.848Z,19.10
2019-05-03T12:01:25.635Z,18.40
2019-05-03T12:11:31.671Z,17.40
2019-05-03T12:17:17.128Z,16.70
2019-05-03T12:26:55.669Z,15.50
2019-05-03T12:29:25.681Z,15.50
2019-05-03T12:31:56.366Z,15.70
2019-05-03T12:41:58.615Z,17.10
2019-05-03T12:49:29.212Z,18.10
2019-05-03T12:54:40.763Z,17.20
2019-05-03T13:05:22.330Z,16.10
2019-05-03T13:08:10.705Z,16.10
2019-05-03T13:25:44.760Z,17.80
2019-05-03T13:28:15.546Z,18.60
2019-05-03T13:43:16.030Z,17.20
2019-05-03T13:53:18.040Z,17.10
2019-05-03T13:58:18.593Z,17.20
2019-05-03T14:08:20.528Z,16.10
2019-05-03T14:18:20.911Z,15.70
2019-05-03T14:23:58.293Z,15.30
2019-05-03T14:26:29.005Z,15.60
2019-05-03T14:38:59.373Z,16.00
2019-05-03T14:56:52.966Z,15.60
2019-05-03T14:59:51.634Z,15.50
2019-05-03T15:07:29.759Z,15.40
2019-05-03T15:17:30.009Z,15.00
2019-05-03T15:27:30.274Z,15.10
2019-05-03T15:40:00.657Z,15.20
2019-05-03T15:45:34.369Z,15.00
2019-05-03T15:48:25.897Z,15.10
2019-05-03T15:55:56.418Z,15.40
2019-05-03T16:00:57.030Z,15.30
2019-05-03T16:15:57.334Z,14.60
2019-05-03T16:31:11.362Z,14.20
2019-05-03T16:46:14.561Z,13.40
2019-05-03T16:48:45.670Z,13.40
2019-05-03T16:53:47.900Z,13.10
2019-05-03T17:01:18.321Z,12.80
2019-05-03T17:03:56.745Z,12.90
2019-05-03T17:06:40.213Z,12.80
2019-05-03T17:09:24.854Z,12.80
2019-05-03T17:32:11.056Z,13.10
2019-05-03T17:34:41.306Z,13.00
2019-05-03T17:37:12.007Z,12.80
2019-05-03T17:39:49.342Z,12.80
2019-05-03T17:42:25.313Z,12.70
2019-05-03T17:44:56.058Z,12.50
2019-05-03T17:47:26.757Z,12.40
2019-05-03T17:55:55.053Z,12.20
2019-05-03T18:01:39.990Z,12.10
2019-05-03T18:04:17.764Z,12.00
2019-05-03T18:07:06.207Z,11.90
2019-05-03T18:09:37.952Z,11.90
2019-05-03T18:14:39.487Z,11.70
2019-05-03T18:24:40.037Z,11.50
2019-05-03T18:34:41.515Z,11.40
2019-05-03T18:37:12.205Z,11.40
2019-05-03T18:44:50.122Z,11.20
2019-05-03T18:49:54.864Z,11.10
2019-05-03T18:52:25.682Z,11.00
2019-05-03T18:54:56.321Z,11.00
2019-05-03T19:02:26.712Z,10.80
2019-05-03T19:13:01.594Z,10.40
2019-05-03T19:15:34.627Z,10.40
2019-05-03T19:23:08.851Z,10.20
2019-05-03T19:28:11.209Z,10.20
2019-05-03T19:33:14.498Z,10.00
2019-05-03T19:35:45.257Z,10.00
2019-05-03T19:50:47.289Z,9.50
2019-05-03T19:56:09.672Z,9.40
2019-05-03T20:04:30.240Z,9.40
2019-05-03T20:07:07.770Z,9.40
2019-05-03T20:19:38.093Z,9.30
2019-05-03T20:32:08.549Z,9.40
2019-05-03T20:44:47.849Z,9.20
2019-05-03T20:47:34.874Z,9.20
2019-05-03T20:50:16.228Z,9.20
2019-05-03T20:52:47.103Z,9.20
2019-05-03T21:02:54.097Z,9.10
2019-05-03T21:07:55.092Z,9.10
2019-05-03T21:23:34.453Z,9.10
2019-05-03T21:26:13.191Z,9.00
2019-05-03T21:31:11.128Z,9.00
2019-05-03T21:33:44.519Z,9.00
2019-05-03T21:36:15.276Z,9.00
2019-05-03T21:38:45.889Z,9.10
2019-05-03T21:59:16.492Z,9.00
2019-05-03T22:01:48.738Z,9.00
2019-05-03T22:04:19.368Z,8.90
2019-05-03T22:06:50.089Z,8.90
2019-05-03T22:14:30.064Z,9.00
2019-05-03T22:17:31.631Z,9.00
2019-05-03T22:20:27.333Z,8.90
2019-05-03T22:23:04.531Z,8.90
2019-05-03T22:28:07.176Z,9.00
2019-05-03T22:30:37.864Z,9.00
2019-05-03T22:38:09.305Z,9.00
2019-05-03T22:40:40.963Z,9.00
2019-05-03T22:48:11.357Z,9.10
2019-05-03T22:55:42.316Z,9.10
2019-05-03T22:58:12.946Z,9.10
2019-05-03T23:00:44.504Z,9.10
2019-05-03T23:03:15.233Z,9.10
2019-05-03T23:18:15.846Z,9.00
2019-05-03T23:26:15.988Z,9.00
2019-05-03T23:38:46.248Z,9.10
2019-05-03T23:48:48.107Z,8.80
2019-05-03T23:54:06.448Z,8.80
